createdAt,value
2023-03-17T00:01:54.908Z,4.40
2023-03-17T00:04:25.194Z,5.05
2023-03-17T00:06:51.815Z,4.53
2023-03-17T00:09:22.451Z,4.93
2023-03-17T00:11:50.214Z,4.20
2023-03-17T00:14:16.820Z,3.97
2023-03-17T00:16:45.002Z,4.20
2023-03-17T00:19:16.591Z,4.28
2023-03-17T00:21:43.125Z,4.22
2023-03-17T00:24:12.486Z,4.07
2023-03-17T00:26:41.209Z,3.83
2023-03-17T00:29:08.488Z,3.85
2023-03-17T00:31:35.122Z,4.00
2023-03-17T00:34:02.853Z,3.47
2023-03-17T00:36:31.066Z,3.90
2023-03-17T00:39:00.567Z,4.20
2023-03-17T00:41:27.369Z,4.53
2023-03-17T00:43:53.848Z,4.47
2023-03-17T00:46:28.740Z,3.53
2023-03-17T00:48:55.401Z,4.68
2023-03-17T00:51:23.591Z,4.20
2023-03-17T00:53:50.593Z,3.63
2023-03-17T00:56:19.090Z,3.90
2023-03-17T00:58:45.648Z,3.53
2023-03-17T01:01:12.530Z,4.18
2023-03-17T01:03:39.643Z,4.70
2023-03-17T01:06:07.889Z,4.03
2023-03-17T01:08:34.536Z,4.32
2023-03-17T01:11:02.052Z,4.82
2023-03-17T01:13:29.217Z,4.47
2023-03-17T01:15:57.245Z,4.75
2023-03-17T01:18:24.108Z,4.15
2023-03-17T01:20:50.822Z,4.03
2023-03-17T01:23:19.664Z,4.53
2023-03-17T01:25:46.049Z,3.80
2023-03-17T01:28:16.818Z,4.10
2023-03-17T01:30:43.863Z,3.80
2023-03-17T01:33:11.109Z,4.03
2023-03-17T01:35:38.379Z,3.72
2023-03-17T01:38:05.631Z,3.70
2023-03-17T01:40:33.440Z,4.25
2023-03-17T01:43:04.382Z,4.25
2023-03-17T01:45:49.785Z,4.53
2023-03-17T01:48:17.360Z,3.72
2023-03-17T01:50:44.574Z,5.47
2023-03-17T01:53:11.826Z,3.92
2023-03-17T01:55:38.249Z,4.65
2023-03-17T01:58:04.916Z,4.88
2023-03-17T02:00:32.638Z,4.82
2023-03-17T02:02:59.297Z,4.50
2023-03-17T02:05:29.825Z,4.80
2023-03-17T02:07:56.541Z,4.50
2023-03-17T02:10:24.192Z,4.13
2023-03-17T02:12:55.578Z,4.72
2023-03-17T02:15:22.701Z,4.10
2023-03-17T02:17:49.648Z,4.65
2023-03-17T02:20:16.003Z,4.53
2023-03-17T02:22:48.705Z,5.32
2023-03-17T02:25:17.306Z,3.72
2023-03-17T02:27:52.065Z,4.38
2023-03-17T02:30:19.886Z,4.43
2023-03-17T12:23:31.893Z,0.82
2023-03-17T12:25:58.791Z,1.15
2023-03-17T13:40:10.705Z,0.52
2023-03-17T13:42:44.602Z,0.82
2023-03-17T13:45:41.472Z,0.70
2023-03-17T13:48:47.128Z,0.50
2023-03-17T13:51:20.790Z,0.70
2023-03-17T13:53:49.420Z,0.68
2023-03-17T13:56:21.656Z,0.63
2023-03-17T13:59:05.187Z,0.80
2023-03-17T14:01:35.773Z,0.55
2023-03-17T14:04:03.262Z,0.68
2023-03-17T14:06:38.646Z,1.00
2023-03-17T14:09:19.483Z,0.60
2023-03-17T14:11:47.598Z,1.25
2023-03-17T14:14:33.061Z,0.55
2023-03-17T14:17:08.825Z,0.88
2023-03-17T14:19:39.006Z,0.40
2023-03-17T14:22:18.799Z,0.60
2023-03-17T14:24:45.412Z,0.70
2023-03-17T14:27:46.976Z,0.70
2023-03-17T15:17:36.531Z,0.95
2023-03-17T15:20:06.327Z,0.40
2023-03-17T15:22:35.951Z,0.85
2023-03-17T15:25:05.900Z,0.95
2023-03-17T15:27:32.363Z,1.27
2023-03-17T15:29:58.780Z,0.73
2023-03-17T15:32:31.247Z,0.70
2023-03-17T15:34:59.862Z,1.38
2023-03-17T15:37:29.060Z,1.23
2023-03-17T15:39:57.582Z,1.48
2023-03-17T15:42:31.693Z,1.63
2023-03-17T15:45:00.296Z,1.05
2023-03-17T15:47:28.409Z,0.95
2023-03-17T15:50:16.493Z,1.35
2023-03-17T15:55:43.733Z,1.10
2023-03-17T15:58:11.238Z,0.50
2023-03-17T16:00:42.385Z,1.00
2023-03-17T16:03:27.819Z,1.00
2023-03-17T16:05:54.192Z,0.98
2023-03-17T16:08:21.766Z,0.68
2023-03-17T16:10:48.080Z,0.82
2023-03-17T16:13:14.677Z,1.00
2023-03-17T16:15:46.265Z,0.95
2023-03-17T16:18:14.409Z,0.85
2023-03-17T16:20:44.229Z,0.70
2023-03-17T16:23:15.418Z,0.55
2023-03-17T16:25:42.183Z,1.58
2023-03-17T16:28:16.733Z,0.55
2023-03-17T16:30:43.741Z,0.68
2023-03-17T16:33:16.502Z,1.20
2023-03-17T16:35:43.106Z,1.27
2023-03-17T16:38:14.300Z,1.10
2023-03-17T16:40:44.794Z,0.70
2023-03-17T16:43:26.036Z,1.27
2023-03-17T16:45:54.149Z,1.23
2023-03-17T16:48:20.541Z,1.23
2023-03-17T16:50:47.169Z,2.05
2023-03-17T16:56:06.779Z,1.50
2023-03-17T16:58:34.520Z,1.00
2023-03-17T17:03:42.782Z,0.95
2023-03-17T17:06:13.621Z,2.50
2023-03-17T17:08:41.343Z,1.20
2023-03-17T17:11:07.855Z,1.50
2023-03-17T17:13:34.243Z,1.50
2023-03-17T17:16:00.808Z,1.30
2023-03-17T17:18:27.606Z,1.77
2023-03-17T17:20:54.311Z,2.08
2023-03-17T17:23:22.364Z,1.75
2023-03-17T17:25:49.457Z,1.42
2023-03-17T17:28:17.026Z,1.45
2023-03-17T17:30:45.287Z,1.60
2023-03-17T17:33:12.222Z,1.42
2023-03-17T17:35:38.666Z,1.48
2023-03-17T17:38:05.482Z,1.60
2023-03-17T17:40:32.228Z,1.92
2023-03-17T17:42:59.845Z,1.90
2023-03-17T17:45:26.312Z,2.28
2023-03-17T17:47:52.714Z,1.77
2023-03-17T17:50:22.936Z,1.30
2023-03-17T17:55:19.928Z,2.92
2023-03-17T17:57:46.370Z,2.17
2023-03-17T18:00:14.015Z,1.98
2023-03-17T18:02:40.644Z,1.80
2023-03-17T18:05:09.121Z,1.52
2023-03-17T18:07:35.792Z,1.27
2023-03-17T18:10:05.707Z,1.33
2023-03-17T18:12:32.140Z,1.50
2023-03-17T18:14:58.554Z,1.15
2023-03-17T18:17:25.038Z,1.40
2023-03-17T18:19:54.467Z,1.30
2023-03-17T18:22:21.605Z,1.38
2023-03-17T18:24:51.089Z,1.70
2023-03-17T18:27:17.442Z,1.20
2023-03-17T18:29:45.459Z,1.70
2023-03-17T18:32:12.825Z,2.47
2023-03-17T18:34:48.783Z,1.60
2023-03-17T18:37:21.257Z,2.22
2023-03-17T18:39:58.538Z,1.92
2023-03-17T18:42:43.041Z,1.83
2023-03-17T18:45:12.711Z,1.65
2023-03-17T18:48:01.364Z,1.27
2023-03-17T18:50:30.974Z,1.45
2023-03-17T18:52:58.188Z,2.78
2023-03-17T18:55:24.667Z,1.67
2023-03-17T18:57:54.316Z,1.63
2023-03-17T19:00:27.050Z,1.52
2023-03-17T19:02:53.705Z,2.15
2023-03-17T19:05:23.051Z,1.52
2023-03-17T19:07:49.460Z,1.48
2023-03-17T19:10:36.083Z,1.15
2023-03-17T19:13:10.341Z,1.95
2023-03-17T19:15:36.981Z,1.77
2023-03-17T19:18:03.503Z,1.70
2023-03-17T19:20:35.159Z,1.45
2023-03-17T19:23:01.764Z,1.45
2023-03-17T19:25:28.257Z,1.17
2023-03-17T19:27:55.379Z,1.42
2023-03-17T19:30:21.789Z,1.77
2023-03-17T19:32:48.367Z,1.90
2023-03-17T19:35:14.832Z,1.40
2023-03-17T19:37:41.404Z,2.40
2023-03-17T19:40:09.778Z,4.07
2023-03-17T19:42:36.308Z,1.40
2023-03-17T19:45:08.397Z,1.63
2023-03-17T19:47:34.855Z,0.90
2023-03-17T19:50:01.388Z,1.92
2023-03-17T19:52:27.835Z,1.38
2023-03-17T19:54:54.306Z,1.40
2023-03-17T19:57:22.437Z,2.70
2023-03-17T19:59:49.021Z,3.90
2023-03-17T20:02:16.675Z,2.85
2023-03-17T20:04:43.140Z,2.40
2023-03-17T20:07:11.777Z,3.25
2023-03-17T20:09:39.372Z,3.13
2023-03-17T20:12:05.936Z,3.50
2023-03-17T20:14:32.360Z,4.03
2023-03-17T20:20:51.632Z,4.47
2023-03-17T20:23:18.390Z,3.75
2023-03-17T20:25:44.784Z,3.55
2023-03-17T20:28:11.865Z,4.95
2023-03-17T20:31:23.517Z,3.97
2023-03-17T20:33:52.315Z,3.35
2023-03-17T20:36:19.983Z,2.78
2023-03-17T20:38:46.812Z,3.38
2023-03-17T20:41:25.496Z,3.45
2023-03-17T20:43:53.248Z,2.85
2023-03-17T20:46:26.930Z,2.42
2023-03-17T20:48:59.186Z,1.95
2023-03-17T20:51:26.256Z,2.13
2023-03-17T20:53:53.661Z,2.13
2023-03-17T20:56:22.349Z,1.92
2023-03-17T20:58:50.984Z,2.03
2023-03-17T21:01:20.778Z,1.33
2023-03-17T21:03:48.224Z,1.98
2023-03-17T21:06:15.011Z,2.15
2023-03-17T21:08:48.970Z,2.08
2023-03-17T21:13:57.899Z,1.33
2023-03-17T21:16:29.946Z,2.28
2023-03-17T21:18:57.635Z,1.25
2023-03-17T21:21:25.132Z,1.55
2023-03-17T21:23:56.965Z,1.80
2023-03-17T21:26:24.754Z,2.03
2023-03-17T21:28:55.443Z,2.13
2023-03-17T21:31:29.153Z,2.30
2023-03-17T21:39:36.350Z,1.70
2023-03-17T21:42:03.811Z,1.83
2023-03-17T21:44:45.280Z,2.03
2023-03-17T21:47:21.907Z,2.55
2023-03-17T21:49:48.366Z,2.30
2023-03-17T21:52:15.147Z,2.58
2023-03-17T21:54:43.205Z,1.70
2023-03-17T21:57:12.169Z,1.65
2023-03-17T21:59:38.890Z,1.15
2023-03-17T22:02:05.423Z,2.50
2023-03-17T22:04:31.881Z,1.42
2023-03-17T22:07:00.804Z,1.67
2023-03-17T22:09:29.902Z,1.10
2023-03-17T22:11:56.517Z,1.48
2023-03-17T22:14:23.151Z,1.00
2023-03-17T22:16:51.885Z,0.80
2023-03-17T22:22:00.949Z,1.23
2023-03-17T22:24:32.379Z,1.33
2023-03-17T22:26:59.305Z,0.95
2023-03-17T22:29:54.962Z,0.98
2023-03-17T22:32:27.402Z,1.67
2023-03-17T22:34:54.248Z,0.98
2023-03-17T22:37:20.817Z,1.17
2023-03-17T22:40:14.876Z,1.08
2023-03-17T22:42:41.690Z,1.48
2023-03-17T22:45:08.635Z,0.82
2023-03-17T22:47:37.970Z,1.33
2023-03-17T22:50:06.784Z,1.10
2023-03-17T22:52:37.290Z,1.20
2023-03-17T22:55:04.119Z,1.13
2023-03-17T22:57:33.798Z,1.15
2023-03-17T23:00:00.356Z,1.27
2023-03-17T23:02:28.718Z,1.20
2023-03-17T23:05:12.167Z,1.45
2023-03-17T23:07:49.477Z,1.50
2023-03-17T23:10:31.933Z,1.20
2023-03-17T23:12:58.905Z,1.27
2023-03-17T23:15:25.451Z,1.35
2023-03-17T23:17:52.092Z,1.35
2023-03-17T23:20:19.152Z,1.67
2023-03-17T23:22:45.553Z,2.00
2023-03-17T23:25:13.686Z,1.88
2023-03-17T23:27:43.821Z,1.38
2023-03-17T23:30:15.806Z,1.52
2023-03-17T23:32:42.911Z,1.42
2023-03-17T23:35:13.057Z,1.42
2023-03-17T23:37:39.874Z,1.88
2023-03-17T23:40:07.054Z,0.80
2023-03-17T23:42:33.454Z,1.50
2023-03-17T23:45:00.717Z,1.50
2023-03-17T23:47:28.269Z,1.15
2023-03-17T23:49:56.352Z,1.27
2023-03-17T23:52:22.726Z,1.58
2023-03-17T23:54:52.275Z,1.92
2023-03-17T23:57:19.335Z,1.27
2023-03-17T23:59:45.824Z,0.93
